sensor_id;sensor_type;location;lat;lon;timestamp;pressure;altitude;pressure_sealevel;temperature
67966;BMP280;54749;47.850;9.002;2022-07-21T00:00:20;96396.69;;;19.26
67966;BMP280;54749;47.850;9.002;2022-07-21T00:03:02;96411.41;;;19.24
67966;BMP280;54749;47.850;9.002;2022-07-21T00:05:29;96414.78;;;19.25
67966;BMP280;54749;47.850;9.002;2022-07-21T00:07:57;96412.22;;;19.25
67966;BMP280;54749;47.850;9.002;2022-07-21T00:10:25;96421.53;;;19.26
67966;BMP280;54749;47.850;9.002;2022-07-21T00:12:53;96422.34;;;19.26
67966;BMP280;54749;47.850;9.002;2022-07-21T00:15:23;96404.22;;;19.28
67966;BMP280;54749;47.850;9.002;2022-07-21T00:17:51;96381.81;;;19.29
67966;BMP280;54749;47.850;9.002;2022-07-21T00:20:19;96376.03;;;19.28
67966;BMP280;54749;47.850;9.002;2022-07-21T00:22:46;96398.78;;;19.30
67966;BMP280;54749;47.850;9.002;2022-07-21T00:25:14;96392.06;;;19.29
67966;BMP280;54749;47.850;9.002;2022-07-21T00:27:42;96402.13;;;19.31
67966;BMP280;54749;47.850;9.002;2022-07-21T00:30:10;96406.16;;;19.33
67966;BMP280;54749;47.850;9.002;2022-07-21T00:32:37;96411.16;;;19.35
67966;BMP280;54749;47.850;9.002;2022-07-21T00:35:05;96416.75;;;19.38
67966;BMP280;54749;47.850;9.002;2022-07-21T00:37:33;96413.88;;;19.41
67966;BMP280;54749;47.850;9.002;2022-07-21T00:40:00;96428.31;;;19.42
67966;BMP280;54749;47.850;9.002;2022-07-21T00:42:29;96422.22;;;19.43
67966;BMP280;54749;47.850;9.002;2022-07-21T00:44:57;96417.72;;;19.45
67966;BMP280;54749;47.850;9.002;2022-07-21T00:47:26;96410.97;;;19.44
67966;BMP280;54749;47.850;9.002;2022-07-21T00:49:55;96421.25;;;19.44
67966;BMP280;54749;47.850;9.002;2022-07-21T00:52:22;96422.84;;;19.45
67966;BMP280;54749;47.850;9.002;2022-07-21T00:54:49;96419.66;;;19.43
67966;BMP280;54749;47.850;9.002;2022-07-21T00:57:16;96423.81;;;19.44
67966;BMP280;54749;47.850;9.002;2022-07-21T00:59:44;96418.19;;;19.41
67966;BMP280;54749;47.850;9.002;2022-07-21T01:02:12;96423.50;;;19.39
67966;BMP280;54749;47.850;9.002;2022-07-21T01:04:39;96424.28;;;19.40
67966;BMP280;54749;47.850;9.002;2022-07-21T01:07:06;96416.09;;;19.36
67966;BMP280;54749;47.850;9.002;2022-07-21T01:09:34;96394.63;;;19.37
67966;BMP280;54749;47.850;9.002;2022-07-21T01:12:02;96392.22;;;19.36
67966;BMP280;54749;47.850;9.002;2022-07-21T01:14:29;96409.34;;;19.35
67966;BMP280;54749;47.850;9.002;2022-07-21T01:16:56;96410.34;;;19.34
67966;BMP280;54749;47.850;9.002;2022-07-21T01:19:22;96399.28;;;19.34
67966;BMP280;54749;47.850;9.002;2022-07-21T01:21:49;96409.06;;;19.30
67966;BMP280;54749;47.850;9.002;2022-07-21T01:24:18;96407.72;;;19.27
67966;BMP280;54749;47.850;9.002;2022-07-21T01:26:47;96407.09;;;19.25
67966;BMP280;54749;47.850;9.002;2022-07-21T01:29:15;96398.59;;;19.24
67966;BMP280;54749;47.850;9.002;2022-07-21T01:31:44;96401.97;;;19.25
67966;BMP280;54749;47.850;9.002;2022-07-21T01:34:12;96408.19;;;19.22
67966;BMP280;54749;47.850;9.002;2022-07-21T01:36:39;96410.63;;;19.24
67966;BMP280;54749;47.850;9.002;2022-07-21T01:39:06;96418.97;;;19.26
67966;BMP280;54749;47.850;9.002;2022-07-21T01:41:52;96415.41;;;19.27
67966;BMP280;54749;47.850;9.002;2022-07-21T01:44:19;96404.22;;;19.28
67966;BMP280;54749;47.850;9.002;2022-07-21T01:46:49;96404.22;;;19.28
67966;BMP280;54749;47.850;9.002;2022-07-21T01:49:18;96411.91;;;19.28
67966;BMP280;54749;47.850;9.002;2022-07-21T01:51:45;96414.31;;;19.29
67966;BMP280;54749;47.850;9.002;2022-07-21T01:54:12;96419.44;;;19.29
67966;BMP280;54749;47.850;9.002;2022-07-21T01:56:43;96419.31;;;19.30
67966;BMP280;54749;47.850;9.002;2022-07-21T01:59:09;96421.69;;;19.32
67966;BMP280;54749;47.850;9.002;2022-07-21T02:01:36;96414.81;;;19.32
67966;BMP280;54749;47.850;9.002;2022-07-21T02:04:04;96404.56;;;19.32
67966;BMP280;54749;47.850;9.002;2022-07-21T02:06:32;96407.44;;;19.29
67966;BMP280;54749;47.850;9.002;2022-07-21T02:08:58;96406.63;;;19.29
67966;BMP280;54749;47.850;9.002;2022-07-21T02:11:26;96409.06;;;19.30
67966;BMP280;54749;47.850;9.002;2022-07-21T02:13:53;96406.16;;;19.33
67966;BMP280;54749;47.850;9.002;2022-07-21T02:16:20;96399.44;;;19.32
67966;BMP280;54749;47.850;9.002;2022-07-21T02:18:47;96397.19;;;19.29
67966;BMP280;54749;47.850;9.002;2022-07-21T02:21:14;96400.38;;;19.31
67966;BMP280;54749;47.850;9.002;2022-07-21T02:23:41;96393.97;;;19.28
67966;BMP280;54749;47.850;9.002;2022-07-21T02:26:08;96404.22;;;19.28
67966;BMP280;54749;47.850;9.002;2022-07-21T02:28:35;96408.53;;;19.27
67966;BMP280;54749;47.850;9.002;2022-07-21T02:31:02;96421.53;;;19.26
67966;BMP280;54749;47.850;9.002;2022-07-21T02:33:29;96428.56;;;19.24
67966;BMP280;54749;47.850;9.002;2022-07-21T02:35:55;96427.75;;;19.23
67966;BMP280;54749;47.850;9.002;2022-07-21T02:38:22;96428.56;;;19.24
67966;BMP280;54749;47.850;9.002;2022-07-21T02:40:49;96428.56;;;19.24
67966;BMP280;54749;47.850;9.002;2022-07-21T02:43:23;96437.53;;;19.28
67966;BMP280;54749;47.850;9.002;2022-07-21T02:45:49;96429.03;;;19.27
67966;BMP280;54749;47.850;9.002;2022-07-21T02:48:16;96432.06;;;19.23
67966;BMP280;54749;47.850;9.002;2022-07-21T02:50:44;96427.13;;;19.21
67966;BMP280;54749;47.850;9.002;2022-07-21T02:53:14;96426.94;;;19.23
67966;BMP280;54749;47.850;9.002;2022-07-21T02:55:44;96431.59;;;19.19
67966;BMP280;54749;47.850;9.002;2022-07-21T02:58:31;96432.84;;;19.15
67966;BMP280;54749;47.850;9.002;2022-07-21T03:01:04;96433.66;;;19.16
67966;BMP280;54749;47.850;9.002;2022-07-21T03:03:34;96439.09;;;19.13
67966;BMP280;54749;47.850;9.002;2022-07-21T03:06:02;96445.81;;;19.14
67966;BMP280;54749;47.850;9.002;2022-07-21T03:08:29;96446.78;;;19.13
67966;BMP280;54749;47.850;9.002;2022-07-21T03:10:56;96440.19;;;19.11
67966;BMP280;54749;47.850;9.002;2022-07-21T03:13:23;96430.91;;;19.10
67966;BMP280;54749;47.850;9.002;2022-07-21T03:15:49;96430.44;;;19.14
67966;BMP280;54749;47.850;9.002;2022-07-21T03:18:16;96428.53;;;19.16
67966;BMP280;54749;47.850;9.002;2022-07-21T03:20:44;96416.34;;;19.18
67966;BMP280;54749;47.850;9.002;2022-07-21T03:23:11;96418.91;;;19.18
67966;BMP280;54749;47.850;9.002;2022-07-21T03:25:38;96413.78;;;19.18
67966;BMP280;54749;47.850;9.002;2022-07-21T03:28:05;96433.66;;;19.16
67966;BMP280;54749;47.850;9.002;2022-07-21T03:30:34;96456.53;;;19.10
67966;BMP280;54749;47.850;9.002;2022-07-21T03:33:01;96454.16;;;19.08
67966;BMP280;54749;47.850;9.002;2022-07-21T03:35:28;96458.94;;;19.11
67966;BMP280;54749;47.850;9.002;2022-07-21T03:37:58;96455.44;;;19.12
67966;BMP280;54749;47.850;9.002;2022-07-21T03:40:28;96457.34;;;19.10
67966;BMP280;54749;47.850;9.002;2022-07-21T03:42:57;96447.09;;;19.10
67966;BMP280;54749;47.850;9.002;2022-07-21T03:45:25;96459.91;;;19.10
67966;BMP280;54749;47.850;9.002;2022-07-21T03:47:52;96443.88;;;19.08
67966;BMP280;54749;47.850;9.002;2022-07-21T03:50:20;96458.94;;;19.11
67966;BMP280;54749;47.850;9.002;2022-07-21T03:52:47;96457.19;;;19.12
67966;BMP280;54749;47.850;9.002;2022-07-21T03:55:14;96447.09;;;19.10
67966;BMP280;54749;47.850;9.002;2022-07-21T03:57:56;96452.22;;;19.10
67966;BMP280;54749;47.850;9.002;2022-07-21T04:00:31;96457.34;;;19.10
67966;BMP280;54749;47.850;9.002;2022-07-21T04:02:59;96457.06;;;19.13
67966;BMP280;54749;47.850;9.002;2022-07-21T04:05:27;96453.56;;;19.22
67966;BMP280;54749;47.850;9.002;2022-07-21T04:07:55;96462.72;;;19.32
67966;BMP280;54749;47.850;9.002;2022-07-21T04:10:24;96461.41;;;19.28
67966;BMP280;54749;47.850;9.002;2022-07-21T04:12:52;96475.19;;;19.27
67966;BMP280;54749;47.850;9.002;2022-07-21T04:15:19;96473.78;;;19.32
67966;BMP280;54749;47.850;9.002;2022-07-21T04:17:47;96465.47;;;19.38
67966;BMP280;54749;47.850;9.002;2022-07-21T04:20:15;96478.09;;;19.32
67966;BMP280;54749;47.850;9.002;2022-07-21T04:22:43;96472.50;;;19.36
67966;BMP280;54749;47.850;9.002;2022-07-21T04:25:12;96480.88;;;19.46
67966;BMP280;54749;47.850;9.002;2022-07-21T04:27:39;96481.41;;;19.57
67966;BMP280;54749;47.850;9.002;2022-07-21T04:30:09;96473.88;;;19.56
67966;BMP280;54749;47.850;9.002;2022-07-21T04:32:36;96464.09;;;19.51
67966;BMP280;54749;47.850;9.002;2022-07-21T04:35:07;96475.41;;;19.49
67966;BMP280;54749;47.850;9.002;2022-07-21T04:37:34;96487.00;;;19.53
67966;BMP280;54749;47.850;9.002;2022-07-21T04:40:05;96495.84;;;19.58
67966;BMP280;54749;47.850;9.002;2022-07-21T04:42:32;96491.66;;;19.57
67966;BMP280;54749;47.850;9.002;2022-07-21T04:45:02;96502.38;;;19.53
67966;BMP280;54749;47.850;9.002;2022-07-21T04:47:29;96504.50;;;19.57
67966;BMP280;54749;47.850;9.002;2022-07-21T04:49:55;96506.09;;;19.58
67966;BMP280;54749;47.850;9.002;2022-07-21T04:52:22;96504.34;;;19.59
67966;BMP280;54749;47.850;9.002;2022-07-21T04:54:49;96503.53;;;19.58
67966;BMP280;54749;47.850;9.002;2022-07-21T04:57:16;96506.13;;;19.66
67966;BMP280;54749;47.850;9.002;2022-07-21T04:59:43;96514.34;;;19.77
67966;BMP280;54749;47.850;9.002;2022-07-21T05:02:10;96506.81;;;19.83
67966;BMP280;54749;47.850;9.002;2022-07-21T05:04:36;96517.06;;;19.83
67966;BMP280;54749;47.850;9.002;2022-07-21T05:07:03;96511.13;;;19.83
67966;BMP280;54749;47.850;9.002;2022-07-21T05:09:30;96511.47;;;19.96
67966;BMP280;54749;47.850;9.002;2022-07-21T05:11:57;96510.22;;;20.07
67966;BMP280;54749;47.850;9.002;2022-07-21T05:14:25;96507.34;;;20.18
67966;BMP280;54749;47.850;9.002;2022-07-21T05:16:52;96507.66;;;20.31
67966;BMP280;54749;47.850;9.002;2022-07-21T05:19:18;96504.50;;;20.36
67966;BMP280;54749;47.850;9.002;2022-07-21T05:21:45;96511.38;;;20.44
67966;BMP280;54749;47.850;9.002;2022-07-21T05:24:13;96507.03;;;20.52
67966;BMP280;54749;47.850;9.002;2022-07-21T05:26:41;96514.09;;;20.66
67966;BMP280;54749;47.850;9.002;2022-07-21T05:29:08;96517.97;;;20.77
67966;BMP280;54749;47.850;9.002;2022-07-21T05:31:35;96519.06;;;20.83
67966;BMP280;54749;47.850;9.002;2022-07-21T05:34:01;96514.72;;;20.83
67966;BMP280;54749;47.850;9.002;2022-07-21T05:36:28;96510.19;;;21.01
67966;BMP280;54749;47.850;9.002;2022-07-21T05:38:55;96510.50;;;21.58
67966;BMP280;54749;47.850;9.002;2022-07-21T05:41:22;96508.66;;;21.75
67966;BMP280;54749;47.850;9.002;2022-07-21T05:43:49;96510.97;;;21.62
67966;BMP280;54749;47.850;9.002;2022-07-21T05:46:16;96509.91;;;21.78
67966;BMP280;54749;47.850;9.002;2022-07-21T05:48:43;96516.03;;;21.77
67966;BMP280;54749;47.850;9.002;2022-07-21T05:51:10;96512.25;;;22.03
67966;BMP280;54749;47.850;9.002;2022-07-21T05:53:44;96508.75;;;22.40
67966;BMP280;54749;47.850;9.002;2022-07-21T05:56:11;96514.34;;;22.65
67966;BMP280;54749;47.850;9.002;2022-07-21T05:58:38;96518.63;;;22.73
67966;BMP280;54749;47.850;9.002;2022-07-21T06:01:05;96518.38;;;22.68
67966;BMP280;54749;47.850;9.002;2022-07-21T06:03:36;96510.88;;;22.59
67966;BMP280;54749;47.850;9.002;2022-07-21T06:06:03;96517.38;;;22.47
67966;BMP280;54749;47.850;9.002;2022-07-21T06:08:30;96520.41;;;22.50
67966;BMP280;54749;47.850;9.002;2022-07-21T06:10:57;96524.50;;;22.67
67966;BMP280;54749;47.850;9.002;2022-07-21T06:13:24;96523.25;;;22.77
67966;BMP280;54749;47.850;9.002;2022-07-21T06:15:50;96523.66;;;22.88
67966;BMP280;54749;47.850;9.002;2022-07-21T06:18:17;96519.06;;;22.98
67966;BMP280;54749;47.850;9.002;2022-07-21T06:20:44;96524.00;;;22.85
67966;BMP280;54749;47.850;9.002;2022-07-21T06:23:11;96532.53;;;22.86
67966;BMP280;54749;47.850;9.002;2022-07-21T06:25:38;96530.69;;;22.94
67966;BMP280;54749;47.850;9.002;2022-07-21T06:28:05;96527.91;;;22.96
67966;BMP280;54749;47.850;9.002;2022-07-21T06:30:32;96536.03;;;22.93
67966;BMP280;54749;47.850;9.002;2022-07-21T06:32:59;96538.06;;;23.33
67966;BMP280;54749;47.850;9.002;2022-07-21T06:35:26;96524.84;;;23.85
67966;BMP280;54749;47.850;9.002;2022-07-21T06:37:53;96531.41;;;24.56
67966;BMP280;54749;47.850;9.002;2022-07-21T06:40:20;96524.88;;;24.80
67966;BMP280;54749;47.850;9.002;2022-07-21T06:42:47;96522.72;;;24.84
67966;BMP280;54749;47.850;9.002;2022-07-21T06:45:34;96532.94;;;24.71
67966;BMP280;54749;47.850;9.002;2022-07-21T06:48:04;96539.59;;;24.59
67966;BMP280;54749;47.850;9.002;2022-07-21T06:50:32;96538.78;;;24.59
67966;BMP280;54749;47.850;9.002;2022-07-21T06:53:00;96545.97;;;24.43
67966;BMP280;54749;47.850;9.002;2022-07-21T06:55:26;96546.59;;;24.45
67966;BMP280;54749;47.850;9.002;2022-07-21T06:57:54;96549.53;;;24.42
67966;BMP280;54749;47.850;9.002;2022-07-21T07:00:21;96540.09;;;24.35
67966;BMP280;54749;47.850;9.002;2022-07-21T07:02:48;96546.34;;;24.60
67966;BMP280;54749;47.850;9.002;2022-07-21T07:05:16;96545.66;;;24.73
67966;BMP280;54749;47.850;9.002;2022-07-21T07:07:43;96548.03;;;24.94
67966;BMP280;54749;47.850;9.002;2022-07-21T07:10:10;96553.56;;;26.05
67966;BMP280;54749;47.850;9.002;2022-07-21T07:12:37;96548.75;;;27.42
67966;BMP280;54749;47.850;9.002;2022-07-21T07:15:25;96555.94;;;27.53
67966;BMP280;54749;47.850;9.002;2022-07-21T07:17:52;96565.16;;;27.30
67966;BMP280;54749;47.850;9.002;2022-07-21T07:20:19;96553.31;;;27.41
67966;BMP280;54749;47.850;9.002;2022-07-21T07:22:46;96552.72;;;28.19
67966;BMP280;54749;47.850;9.002;2022-07-21T07:25:13;96549.91;;;28.57
67966;BMP280;54749;47.850;9.002;2022-07-21T07:27:44;96543.34;;;28.55
67966;BMP280;54749;47.850;9.002;2022-07-21T07:30:13;96556.94;;;28.20
67966;BMP280;54749;47.850;9.002;2022-07-21T07:32:41;96563.50;;;27.74
67966;BMP280;54749;47.850;9.002;2022-07-21T07:35:09;96563.09;;;27.51
67966;BMP280;54749;47.850;9.002;2022-07-21T07:37:38;96555.31;;;27.64
67966;BMP280;54749;47.850;9.002;2022-07-21T07:40:09;96548.88;;;28.28
67966;BMP280;54749;47.850;9.002;2022-07-21T07:42:37;96541.38;;;30.05
67966;BMP280;54749;47.850;9.002;2022-07-21T07:45:06;96539.00;;;31.40
67966;BMP280;54749;47.850;9.002;2022-07-21T07:47:33;96537.09;;;32.19
67966;BMP280;54749;47.850;9.002;2022-07-21T07:50:01;96537.66;;;33.35
67966;BMP280;54749;47.850;9.002;2022-07-21T07:52:28;96528.00;;;34.14
67966;BMP280;54749;47.850;9.002;2022-07-21T07:54:55;96519.69;;;34.43
67966;BMP280;54749;47.850;9.002;2022-07-21T07:57:22;96538.88;;;33.64
67966;BMP280;54749;47.850;9.002;2022-07-21T07:59:50;96546.66;;;32.95
67966;BMP280;54749;47.850;9.002;2022-07-21T08:02:16;96548.34;;;32.58
67966;BMP280;54749;47.850;9.002;2022-07-21T08:04:43;96545.72;;;32.58
67966;BMP280;54749;47.850;9.002;2022-07-21T08:07:10;96546.84;;;32.23
67966;BMP280;54749;47.850;9.002;2022-07-21T08:09:39;96544.19;;;32.07
67966;BMP280;54749;47.850;9.002;2022-07-21T08:12:06;96539.06;;;32.94
67966;BMP280;54749;47.850;9.002;2022-07-21T08:14:33;96532.19;;;34.31
67966;BMP280;54749;47.850;9.002;2022-07-21T08:17:00;96530.59;;;35.38
67966;BMP280;54749;47.850;9.002;2022-07-21T08:19:27;96533.72;;;35.04
67966;BMP280;54749;47.850;9.002;2022-07-21T08:21:54;96538.75;;;34.13
67966;BMP280;54749;47.850;9.002;2022-07-21T08:24:40;96544.94;;;33.49
67966;BMP280;54749;47.850;9.002;2022-07-21T08:27:07;96546.44;;;32.70
67966;BMP280;54749;47.850;9.002;2022-07-21T08:29:34;96555.34;;;31.69
67966;BMP280;54749;47.850;9.002;2022-07-21T08:32:01;96542.09;;;32.09
67966;BMP280;54749;47.850;9.002;2022-07-21T08:34:28;96546.31;;;32.76
67966;BMP280;54749;47.850;9.002;2022-07-21T08:36:55;96532.97;;;33.90
67966;BMP280;54749;47.850;9.002;2022-07-21T08:39:22;96523.81;;;35.16
67966;BMP280;54749;47.850;9.002;2022-07-21T08:41:50;96531.00;;;36.01
67966;BMP280;54749;47.850;9.002;2022-07-21T08:44:20;96528.63;;;36.64
67966;BMP280;54749;47.850;9.002;2022-07-21T08:46:49;96537.25;;;35.91
67966;BMP280;54749;47.850;9.002;2022-07-21T08:49:22;96538.88;;;35.96
67966;BMP280;54749;47.850;9.002;2022-07-21T08:51:50;96540.56;;;34.75
67966;BMP280;54749;47.850;9.002;2022-07-21T08:54:20;96536.41;;;35.40
67966;BMP280;54749;47.850;9.002;2022-07-21T08:56:48;96520.09;;;36.38
67966;BMP280;54749;47.850;9.002;2022-07-21T08:59:15;96525.00;;;36.95
67966;BMP280;54749;47.850;9.002;2022-07-21T09:01:42;96516.22;;;37.91
67966;BMP280;54749;47.850;9.002;2022-07-21T09:04:28;96515.50;;;37.52
67966;BMP280;54749;47.850;9.002;2022-07-21T09:07:05;96517.81;;;37.73
67966;BMP280;54749;47.850;9.002;2022-07-21T09:09:33;96517.19;;;38.10
67966;BMP280;54749;47.850;9.002;2022-07-21T09:12:02;96516.16;;;38.68
67966;BMP280;54749;47.850;9.002;2022-07-21T09:14:31;96520.16;;;38.98
67966;BMP280;54749;47.850;9.002;2022-07-21T09:17:03;96512.44;;;38.74
67966;BMP280;54749;47.850;9.002;2022-07-21T09:19:36;96515.13;;;38.59
67966;BMP280;54749;47.850;9.002;2022-07-21T09:22:07;96518.56;;;38.03
67966;BMP280;54749;47.850;9.002;2022-07-21T09:24:38;96513.00;;;38.61
67966;BMP280;54749;47.850;9.002;2022-07-21T09:27:16;96515.03;;;39.16
67966;BMP280;54749;47.850;9.002;2022-07-21T09:29:56;96515.38;;;38.05
67966;BMP280;54749;47.850;9.002;2022-07-21T09:32:28;96540.34;;;36.33
67966;BMP280;54749;47.850;9.002;2022-07-21T09:35:06;96519.66;;;36.56
67966;BMP280;54749;47.850;9.002;2022-07-21T09:37:39;96509.09;;;37.97
67966;BMP280;54749;47.850;9.002;2022-07-21T09:40:08;96518.66;;;38.92
67966;BMP280;54749;47.850;9.002;2022-07-21T09:42:38;96521.13;;;36.28
67966;BMP280;54749;47.850;9.002;2022-07-21T09:45:05;96512.09;;;37.17
67966;BMP280;54749;47.850;9.002;2022-07-21T09:47:34;96520.31;;;35.67
67966;BMP280;54749;47.850;9.002;2022-07-21T09:50:01;96518.56;;;35.16
67966;BMP280;54749;47.850;9.002;2022-07-21T09:52:52;96515.22;;;36.01
67966;BMP280;54749;47.850;9.002;2022-07-21T09:55:19;96516.97;;;35.46
67966;BMP280;54749;47.850;9.002;2022-07-21T09:57:46;96514.25;;;34.49
67966;BMP280;54749;47.850;9.002;2022-07-21T10:00:16;96514.34;;;33.91
67966;BMP280;54749;47.850;9.002;2022-07-21T10:02:46;96513.28;;;34.81
67966;BMP280;54749;47.850;9.002;2022-07-21T10:05:16;96496.78;;;36.01
67966;BMP280;54749;47.850;9.002;2022-07-21T10:07:45;96504.03;;;35.75
67966;BMP280;54749;47.850;9.002;2022-07-21T10:10:13;96503.94;;;34.43
67966;BMP280;54749;47.850;9.002;2022-07-21T10:12:40;96509.53;;;33.46
67966;BMP280;54749;47.850;9.002;2022-07-21T10:15:08;96498.63;;;33.22
67966;BMP280;54749;47.850;9.002;2022-07-21T10:17:35;96489.22;;;34.93
67966;BMP280;54749;47.850;9.002;2022-07-21T10:20:16;96481.91;;;36.36
67966;BMP280;54749;47.850;9.002;2022-07-21T10:23:07;96483.81;;;37.62
67966;BMP280;54749;47.850;9.002;2022-07-21T10:25:43;96481.19;;;37.52
67966;BMP280;54749;47.850;9.002;2022-07-21T10:30:38;96475.84;;;37.71
67966;BMP280;54749;47.850;9.002;2022-07-21T10:33:06;96481.78;;;37.05
67966;BMP280;54749;47.850;9.002;2022-07-21T10:35:33;96481.22;;;37.42
67966;BMP280;54749;47.850;9.002;2022-07-21T10:38:01;96468.03;;;38.23
67966;BMP280;54749;47.850;9.002;2022-07-21T10:45:41;96466.34;;;37.80
67966;BMP280;54749;47.850;9.002;2022-07-21T10:51:02;96468.00;;;37.52
67966;BMP280;54749;47.850;9.002;2022-07-21T10:53:29;96475.44;;;37.40
67966;BMP280;54749;47.850;9.002;2022-07-21T10:55:56;96463.28;;;37.39
67966;BMP280;54749;47.850;9.002;2022-07-21T11:00:51;96473.03;;;37.49
67966;BMP280;54749;47.850;9.002;2022-07-21T11:03:31;96480.38;;;35.80
67966;BMP280;54749;47.850;9.002;2022-07-21T11:06:18;96472.69;;;35.74
67966;BMP280;54749;47.850;9.002;2022-07-21T11:11:34;96464.47;;;34.33
67966;BMP280;54749;47.850;9.002;2022-07-21T11:14:10;96464.41;;;33.86
67966;BMP280;54749;47.850;9.002;2022-07-21T11:19:28;96463.44;;;33.18
67966;BMP280;54749;47.850;9.002;2022-07-21T11:21:58;96449.94;;;32.78
67966;BMP280;54749;47.850;9.002;2022-07-21T11:24:26;96457.47;;;32.04
67966;BMP280;54749;47.850;9.002;2022-07-21T11:29:22;96451.59;;;31.97
67966;BMP280;54749;47.850;9.002;2022-07-21T11:31:49;96446.97;;;32.15
67966;BMP280;54749;47.850;9.002;2022-07-21T11:34:18;96437.72;;;31.97
67966;BMP280;54749;47.850;9.002;2022-07-21T11:36:45;96439.34;;;31.86
67966;BMP280;54749;47.850;9.002;2022-07-21T11:39:14;96437.25;;;32.00
67966;BMP280;54749;47.850;9.002;2022-07-21T11:41:42;96434.63;;;32.38
67966;BMP280;54749;47.850;9.002;2022-07-21T11:44:11;96434.50;;;32.33
67966;BMP280;54749;47.850;9.002;2022-07-21T11:46:49;96424.47;;;31.76
67966;BMP280;54749;47.850;9.002;2022-07-21T11:49:17;96427.78;;;31.71
67966;BMP280;54749;47.850;9.002;2022-07-21T11:51:56;96426.66;;;31.67
67966;BMP280;54749;47.850;9.002;2022-07-21T11:54:30;96427.28;;;31.47
67966;BMP280;54749;47.850;9.002;2022-07-21T11:56:58;96425.69;;;31.24
67966;BMP280;54749;47.850;9.002;2022-07-21T11:59:27;96415.31;;;31.62
67966;BMP280;54749;47.850;9.002;2022-07-21T12:07:25;96423.00;;;30.06
67966;BMP280;54749;47.850;9.002;2022-07-21T12:09:59;96420.06;;;30.02
67966;BMP280;54749;47.850;9.002;2022-07-21T12:15:16;96409.75;;;30.07
67966;BMP280;54749;47.850;9.002;2022-07-21T12:17:46;96396.31;;;29.92
67966;BMP280;54749;47.850;9.002;2022-07-21T12:20:23;96402.50;;;30.09
67966;BMP280;54749;47.850;9.002;2022-07-21T12:22:50;96404.22;;;30.15
67966;BMP280;54749;47.850;9.002;2022-07-21T12:25:29;96400.53;;;30.05
67966;BMP280;54749;47.850;9.002;2022-07-21T12:27:56;96399.94;;;30.31
67966;BMP280;54749;47.850;9.002;2022-07-21T12:30:50;96405.16;;;30.20
67966;BMP280;54749;47.850;9.002;2022-07-21T12:33:18;96403.59;;;29.90
67966;BMP280;54749;47.850;9.002;2022-07-21T12:36:04;96389.91;;;30.06
67966;BMP280;54749;47.850;9.002;2022-07-21T12:38:40;96393.31;;;29.78
67966;BMP280;54749;47.850;9.002;2022-07-21T12:41:09;96394.22;;;29.83
67966;BMP280;54749;47.850;9.002;2022-07-21T12:44:00;96385.59;;;29.54
67966;BMP280;54749;47.850;9.002;2022-07-21T12:46:35;96375.03;;;29.95
67966;BMP280;54749;47.850;9.002;2022-07-21T12:49:07;96382.06;;;30.06
67966;BMP280;54749;47.850;9.002;2022-07-21T12:51:39;96384.34;;;29.74
67966;BMP280;54749;47.850;9.002;2022-07-21T12:54:06;96383.75;;;29.43
67966;BMP280;54749;47.850;9.002;2022-07-21T12:56:34;96386.72;;;29.29
67966;BMP280;54749;47.850;9.002;2022-07-21T12:59:03;96394.44;;;29.36
67966;BMP280;54749;47.850;9.002;2022-07-21T13:01:31;96383.91;;;29.59
67966;BMP280;54749;47.850;9.002;2022-07-21T13:04:01;96372.19;;;29.68
67966;BMP280;54749;47.850;9.002;2022-07-21T13:06:28;96382.78;;;29.84
67966;BMP280;54749;47.850;9.002;2022-07-21T13:08:55;96366.72;;;29.87
67966;BMP280;54749;47.850;9.002;2022-07-21T13:11:23;96381.06;;;29.78
67966;BMP280;54749;47.850;9.002;2022-07-21T13:13:51;96367.50;;;29.41
67966;BMP280;54749;47.850;9.002;2022-07-21T13:16:19;96366.78;;;29.52
67966;BMP280;54749;47.850;9.002;2022-07-21T13:18:49;96376.41;;;29.52
67966;BMP280;54749;47.850;9.002;2022-07-21T13:21:17;96375.78;;;29.67
67966;BMP280;54749;47.850;9.002;2022-07-21T13:23:44;96366.81;;;29.81
67966;BMP280;54749;47.850;9.002;2022-07-21T13:26:11;96370.56;;;29.85
67966;BMP280;54749;47.850;9.002;2022-07-21T13:28:37;96360.03;;;29.45
67966;BMP280;54749;47.850;9.002;2022-07-21T13:31:05;96358.75;;;29.36
67966;BMP280;54749;47.850;9.002;2022-07-21T13:33:34;96361.00;;;29.33
67966;BMP280;54749;47.850;9.002;2022-07-21T13:36:04;96364.34;;;29.22
67966;BMP280;54749;47.850;9.002;2022-07-21T13:38:31;96349.06;;;29.25
67966;BMP280;54749;47.850;9.002;2022-07-21T13:40:58;96356.16;;;29.36
67966;BMP280;54749;47.850;9.002;2022-07-21T13:43:45;96355.19;;;29.48
67966;BMP280;54749;47.850;9.002;2022-07-21T13:46:14;96354.75;;;29.51
67966;BMP280;54749;47.850;9.002;2022-07-21T13:48:40;96353.25;;;29.44
67966;BMP280;54749;47.850;9.002;2022-07-21T13:51:14;96358.63;;;29.31
67966;BMP280;54749;47.850;9.002;2022-07-21T13:53:43;96351.50;;;29.20
67966;BMP280;54749;47.850;9.002;2022-07-21T13:56:11;96353.84;;;29.28
67966;BMP280;54749;47.850;9.002;2022-07-21T13:58:39;96345.31;;;29.21
67966;BMP280;54749;47.850;9.002;2022-07-21T14:01:08;96348.56;;;29.17
67966;BMP280;54749;47.850;9.002;2022-07-21T14:03:36;96351.56;;;29.14
67966;BMP280;54749;47.850;9.002;2022-07-21T14:06:03;96349.94;;;29.02
67966;BMP280;54749;47.850;9.002;2022-07-21T14:08:31;96342.84;;;29.09
67966;BMP280;54749;47.850;9.002;2022-07-21T14:10:57;96341.81;;;29.10
67966;BMP280;54749;47.850;9.002;2022-07-21T14:13:24;96341.56;;;29.00
67966;BMP280;54749;47.850;9.002;2022-07-21T14:15:51;96344.00;;;28.95
67966;BMP280;54749;47.850;9.002;2022-07-21T14:18:18;96338.16;;;29.00
67966;BMP280;54749;47.850;9.002;2022-07-21T14:20:45;96338.78;;;28.78
67966;BMP280;54749;47.850;9.002;2022-07-21T14:23:12;96338.59;;;28.55
67966;BMP280;54749;47.850;9.002;2022-07-21T14:25:38;96329.78;;;28.56
67966;BMP280;54749;47.850;9.002;2022-07-21T14:28:06;96335.53;;;28.58
67966;BMP280;54749;47.850;9.002;2022-07-21T14:30:33;96337.78;;;28.55
67966;BMP280;54749;47.850;9.002;2022-07-21T14:32:59;96331.34;;;28.57
67966;BMP280;54749;47.850;9.002;2022-07-21T14:35:26;96332.22;;;28.51
67966;BMP280;54749;47.850;9.002;2022-07-21T14:37:54;96330.78;;;28.55
67966;BMP280;54749;47.850;9.002;2022-07-21T14:40:21;96335.97;;;28.55
67966;BMP280;54749;47.850;9.002;2022-07-21T14:42:48;96334.59;;;28.53
67966;BMP280;54749;47.850;9.002;2022-07-21T14:45:19;96327.47;;;28.48
67966;BMP280;54749;47.850;9.002;2022-07-21T14:47:49;96322.34;;;28.36